Time;durP1;ratioP1;P1;durP2;ratioP2;P2;SDS_P1;SDS_P2;PMS_P1;PMS_P2;Temp;Humidity;BMP_temperature;BMP_pressure;BME280_temperature;BME280_humidity;BME280_pressure;Samples;Min_cycle;Max_cycle;Signal;HPM_P1;HPM_P2
2022/10/13 03:27:08;;;;;;;9.23;3.63;;;;;;;;;;5055218;28;20045;-92
2022/10/13 03:30:44;;;;;;;7.73;3.37;;;;;;;;;;5055681;28;20051;-90
2022/10/13 03:34:38;;;;;;;6.55;3.08;;;;;;;;;;5056452;28;20104;-89
2022/10/13 03:38:45;;;;;;;7.10;3.25;;;;;;;;;;5042406;28;20060;-89
2022/10/13 03:42:41;;;;;;;8.23;3.33;;;;;;;;;;5077683;28;20564;-89
2022/10/13 03:46:13;;;;;;;12.70;3.53;;;;;;;;;;5023411;28;20057;-88
2022/10/13 03:49:54;;;;;;;5.57;3.15;;;;;;;;;;5033554;28;20053;-88
2022/10/13 03:53:45;;;;;;;7.90;3.33;;;;;;;;;;5006732;28;20049;-92
2022/10/13 03:57:26;;;;;;;12.07;3.50;;;;;;;;;;4991966;28;20056;-92
2022/10/13 04:00:54;;;;;;;14.15;3.80;;;;;;;;;;5034610;28;20513;-88
2022/10/13 04:08:16;;;;;;;8.38;3.78;;;;;;;;;;4961585;28;20050;-89
2022/10/13 04:12:13;;;;;;;9.10;3.53;;;;;;;;;;4957778;28;20055;-88
2022/10/13 04:15:27;;;;;;;8.18;3.65;;;;;;;;;;4893255;29;20597;-88
2022/10/13 04:19:21;;;;;;;7.13;3.55;;;;;;;;;;4822967;29;20046;-88
2022/10/13 04:23:27;;;;;;;7.68;3.90;;;;;;;;;;4768714;30;20072;-92
2022/10/13 04:26:54;;;;;;;11.23;3.85;;;;;;;;;;4795645;29;20055;-92
2022/10/13 04:30:32;;;;;;;7.45;3.70;;;;;;;;;;4769782;29;20058;-91
2022/10/13 04:33:59;;;;;;;7.07;3.65;;;;;;;;;;4779910;29;20537;-92
2022/10/13 04:37:32;;;;;;;10.27;3.97;;;;;;;;;;4829440;29;20057;-94
2022/10/13 04:41:41;;;;;;;7.03;3.58;;;;;;;;;;4843213;29;20116;-89
2022/10/13 04:45:06;;;;;;;7.53;3.72;;;;;;;;;;4783830;29;20051;-89
2022/10/13 04:48:27;;;;;;;7.82;3.50;;;;;;;;;;4768193;30;20131;-89
2022/10/13 04:51:56;;;;;;;7.47;4.10;;;;;;;;;;4772759;30;20068;-94
2022/10/13 04:55:37;;;;;;;8.55;3.42;;;;;;;;;;4794567;29;20142;-95
2022/10/13 04:59:22;;;;;;;7.47;3.58;;;;;;;;;;4873974;29;20508;-95
2022/10/13 05:02:46;;;;;;;9.68;3.70;;;;;;;;;;4842824;29;20057;-93
2022/10/13 05:06:00;;;;;;;6.28;3.30;;;;;;;;;;4847106;29;20121;-94
2022/10/13 05:09:27;;;;;;;9.50;3.88;;;;;;;;;;4825195;29;20409;-92
2022/10/13 05:13:01;;;;;;;6.85;3.78;;;;;;;;;;4824512;29;20237;-92
2022/10/13 05:16:17;;;;;;;13.07;3.75;;;;;;;;;;4834833;29;20145;-92
2022/10/13 05:19:51;;;;;;;9.02;3.30;;;;;;;;;;4824369;29;20058;-92
2022/10/13 05:22:56;;;;;;;11.52;4.03;;;;;;;;;;4859228;29;20057;-92
2022/10/13 05:31:47;;;;;;;9.57;4.30;;;;;;;;;;4840795;29;20042;-94
2022/10/13 05:35:27;;;;;;;10.45;4.13;;;;;;;;;;4849990;29;20533;-94
2022/10/13 05:38:30;;;;;;;8.45;3.97;;;;;;;;;;4844459;29;20064;-91
2022/10/13 05:42:11;;;;;;;7.80;4.28;;;;;;;;;;4917489;29;20056;-91
2022/10/13 05:45:02;;;;;;;9.32;4.60;;;;;;;;;;4862630;29;20050;-92
2022/10/13 05:48:17;;;;;;;7.50;3.67;;;;;;;;;;4856604;29;20064;-92
2022/10/13 05:51:35;;;;;;;13.98;4.20;;;;;;;;;;4831700;29;20084;-91
2022/10/13 05:54:55;;;;;;;12.00;4.57;;;;;;;;;;4851377;29;20543;-91
2022/10/13 05:57:44;;;;;;;10.43;5.07;;;;;;;;;;4843502;29;20112;-93
2022/10/13 06:00:44;;;;;;;10.73;4.60;;;;;;;;;;4913564;29;20052;-93
2022/10/13 06:04:24;;;;;;;11.82;5.00;;;;;;;;;;4896153;29;20033;-92
2022/10/13 06:07:30;;;;;;;14.02;5.43;;;;;;;;;;4949135;28;20047;-93
2022/10/13 06:10:21;;;;;;;10.82;5.28;;;;;;;;;;4933193;29;20055;-94
2022/10/13 06:13:05;;;;;;;10.88;4.93;;;;;;;;;;4934005;29;20059;-93
2022/10/13 06:15:37;;;;;;;12.43;4.88;;;;;;;;;;4943486;28;20454;-93
2022/10/13 06:18:47;;;;;;;9.30;5.22;;;;;;;;;;4954624;29;20063;-93
2022/10/13 06:21:48;;;;;;;8.82;4.65;;;;;;;;;;4957373;28;20061;-94
2022/10/13 06:24:55;;;;;;;11.88;4.90;;;;;;;;;;4988989;28;20046;-93
2022/10/13 06:27:52;;;;;;;9.95;5.00;;;;;;;;;;4976321;28;20792;-93
2022/10/13 06:34:42;;;;;;;11.73;5.28;;;;;;;;;;4960616;28;20105;-93
2022/10/13 06:37:56;;;;;;;11.63;4.97;;;;;;;;;;4952990;29;20138;-92
2022/10/13 06:40:50;;;;;;;8.40;4.28;;;;;;;;;;4916300;29;20666;-92
2022/10/13 06:43:42;;;;;;;10.07;4.40;;;;;;;;;;4943340;29;20066;-92
2022/10/13 06:46:51;;;;;;;9.75;5.05;;;;;;;;;;4953233;28;20056;-93
2022/10/13 06:49:44;;;;;;;11.32;4.63;;;;;;;;;;4948385;28;20058;-91
2022/10/13 06:53:44;;;;;;;11.50;4.63;;;;;;;;;;4944541;28;20059;-92
2022/10/13 06:56:32;;;;;;;11.00;5.55;;;;;;;;;;4959418;28;20432;-92
2022/10/13 06:59:54;;;;;;;11.48;5.35;;;;;;;;;;4978530;28;20073;-93
2022/10/13 07:03:33;;;;;;;12.55;4.95;;;;;;;;;;4951340;28;20205;-93
2022/10/13 07:08:10;;;;;;;13.15;4.90;;;;;;;;;;4938897;29;20209;-95
2022/10/13 07:11:38;;;;;;;11.27;5.57;;;;;;;;;;4910886;29;20044;-87
2022/10/13 07:15:00;;;;;;;19.15;6.15;;;;;;;;;;4904188;29;20056;-88
2022/10/13 07:19:15;;;;;;;10.13;5.10;;;;;;;;;;4846345;29;20135;-88
2022/10/13 07:22:31;;;;;;;10.88;6.15;;;;;;;;;;4872965;29;20069;-88
2022/10/13 07:26:36;;;;;;;14.55;6.55;;;;;;;;;;4914270;29;20126;-88
2022/10/13 07:30:13;;;;;;;14.88;6.70;;;;;;;;;;4924668;29;20055;-88
2022/10/13 07:33:21;;;;;;;18.13;6.75;;;;;;;;;;4863884;29;20280;-87
2022/10/13 07:37:09;;;;;;;12.80;6.63;;;;;;;;;;4867874;29;20080;-87
2022/10/13 07:40:15;;;;;;;13.32;6.60;;;;;;;;;;4865552;29;20093;-88
2022/10/13 07:44:05;;;;;;;13.70;6.95;;;;;;;;;;4902131;29;20364;-88
2022/10/13 07:47:15;;;;;;;13.75;6.40;;;;;;;;;;4922420;28;20055;-88
2022/10/13 07:51:10;;;;;;;15.13;6.95;;;;;;;;;;4892007;29;20478;-89
2022/10/13 07:54:20;;;;;;;15.55;7.20;;;;;;;;;;4897917;29;20043;-88
2022/10/13 07:57:42;;;;;;;14.82;6.93;;;;;;;;;;4845782;29;20147;-88
2022/10/13 08:00:40;;;;;;;13.38;6.55;;;;;;;;;;4825056;29;20049;-88
2022/10/13 08:04:26;;;;;;;12.77;6.55;;;;;;;;;;4844181;29;20054;-88
2022/10/13 08:12:38;;;;;;;13.35;6.60;;;;;;;;;;4862942;29;20088;-92
2022/10/13 08:15:38;;;;;;;15.50;8.25;;;;;;;;;;4856855;29;20065;-92
2022/10/13 08:22:33;;;;;;;15.95;7.32;;;;;;;;;;4802594;29;20422;-92
2022/10/13 08:26:33;;;;;;;20.40;8.00;;;;;;;;;;4802142;29;20058;-93
2022/10/13 08:30:15;;;;;;;19.17;7.50;;;;;;;;;;4819406;29;20098;-93
2022/10/13 08:34:12;;;;;;;16.13;7.25;;;;;;;;;;4861118;29;20091;-92
2022/10/13 08:37:02;;;;;;;23.08;7.78;;;;;;;;;;4846393;29;20054;-92
2022/10/13 08:40:59;;;;;;;17.53;7.40;;;;;;;;;;4856331;29;20058;-92
2022/10/13 08:44:17;;;;;;;15.00;7.97;;;;;;;;;;4830704;29;20063;-92
2022/10/13 08:48:21;;;;;;;18.33;7.88;;;;;;;;;;4799318;29;20161;-91
2022/10/13 08:51:58;;;;;;;18.98;7.43;;;;;;;;;;4816021;29;20514;-93
2022/10/13 08:55:39;;;;;;;18.17;8.02;;;;;;;;;;4782923;29;20531;-92
2022/10/13 08:59:22;;;;;;;18.05;7.47;;;;;;;;;;4770899;30;20060;-93
2022/10/13 09:03:30;;;;;;;11.38;6.53;;;;;;;;;;4764475;30;20104;-93
2022/10/13 09:07:34;;;;;;;21.23;8.05;;;;;;;;;;4682489;30;20053;-92
2022/10/13 09:11:00;;;;;;;18.77;7.75;;;;;;;;;;4688976;30;20063;-91
2022/10/13 09:15:16;;;;;;;16.77;7.60;;;;;;;;;;4684932;30;20054;-91
2022/10/13 09:19:35;;;;;;;16.98;8.05;;;;;;;;;;4717595;30;20061;-92
2022/10/13 09:27:17;;;;;;;16.17;7.70;;;;;;;;;;4708276;30;20065;-92
2022/10/13 09:30:47;;;;;;;18.58;8.35;;;;;;;;;;4711790;30;20148;-92
2022/10/13 09:34:38;;;;;;;20.38;7.75;;;;;;;;;;4752111;30;20544;-91
2022/10/13 09:37:27;;;;;;;17.70;8.25;;;;;;;;;;4767986;30;20128;-92
2022/10/13 09:41:08;;;;;;;21.05;8.93;;;;;;;;;;4757661;30;20078;-91
2022/10/13 09:44:39;;;;;;;17.27;9.52;;;;;;;;;;4766042;30;20530;-92
2022/10/13 09:48:35;;;;;;;20.52;8.93;;;;;;;;;;4784429;30;20532;-92
2022/10/13 09:52:37;;;;;;;17.65;8.32;;;;;;;;;;4766473;30;20055;-92
2022/10/13 09:56:19;;;;;;;20.02;8.52;;;;;;;;;;4810693;29;20448;-92
2022/10/13 09:59:58;;;;;;;19.13;8.43;;;;;;;;;;4808877;29;20517;-91
2022/10/13 10:03:58;;;;;;;16.60;8.55;;;;;;;;;;4793798;29;20062;-92
2022/10/13 10:07:11;;;;;;;19.27;8.95;;;;;;;;;;4744055;30;20071;-92
2022/10/13 10:10:46;;;;;;;23.58;10.05;;;;;;;;;;4733213;30;20187;-93
2022/10/13 10:14:58;;;;;;;21.05;8.60;;;;;;;;;;4734780;30;20060;-92
2022/10/13 10:19:22;;;;;;;24.23;9.40;;;;;;;;;;4746614;30;20056;-92
2022/10/13 10:23:42;;;;;;;15.30;8.23;;;;;;;;;;4733716;30;20548;-92
2022/10/13 10:27:32;;;;;;;18.77;8.63;;;;;;;;;;4767719;30;20108;-92
2022/10/13 10:31:46;;;;;;;21.42;8.98;;;;;;;;;;4755841;30;20064;-91
2022/10/13 10:35:43;;;;;;;18.35;8.48;;;;;;;;;;4689834;30;20140;-92
2022/10/13 10:39:30;;;;;;;15.32;7.82;;;;;;;;;;4698466;30;20111;-92
2022/10/13 10:43:41;;;;;;;18.23;9.45;;;;;;;;;;4724563;30;20140;-92
2022/10/13 10:47:01;;;;;;;15.30;8.10;;;;;;;;;;4653665;30;20058;-92
2022/10/13 10:50:32;;;;;;;16.52;8.25;;;;;;;;;;4615603;30;20066;-92
2022/10/13 10:54:06;;;;;;;21.38;8.68;;;;;;;;;;4593056;31;20052;-92
2022/10/13 10:57:44;;;;;;;20.25;8.35;;;;;;;;;;4576027;31;20382;-93
2022/10/13 11:00:32;;;;;;;19.08;7.95;;;;;;;;;;4598502;31;20127;-92
2022/10/13 11:03:59;;;;;;;18.65;9.02;;;;;;;;;;4611329;31;20051;-92
2022/10/13 11:06:51;;;;;;;14.07;7.40;;;;;;;;;;4612676;31;20066;-92
2022/10/13 11:10:37;;;;;;;17.88;8.07;;;;;;;;;;4619129;31;20068;-92
2022/10/13 11:14:13;;;;;;;17.27;8.25;;;;;;;;;;4594039;31;20155;-92
2022/10/13 11:17:33;;;;;;;;;;;;;;;;;;4608929;31;20072;-92
2022/10/13 11:21:30;;;;;;;24.00;7.55;;;;;;;;;;4625068;30;19920;-92
2022/10/13 11:25:03;;;;;;;20.50;8.32;;;;;;;;;;4639825;30;20617;-92
2022/10/13 11:29:13;;;;;;;18.33;7.80;;;;;;;;;;4662778;30;20059;-92
2022/10/13 11:33:23;;;;;;;;;;;;;;;;;;;;;
2022/10/13 11:39:58;;;;;;;19.52;8.43;;;;;;;;;;4686420;30;20156;-92
2022/10/13 11:43:27;;;;;;;18.92;7.40;;;;;;;;;;4732179;30;20044;-92
2022/10/13 11:47:10;;;;;;;19.67;8.52;;;;;;;;;;4734692;30;20080;-92
2022/10/13 11:51:15;;;;;;;15.30;7.38;;;;;;;;;;4723252;30;20060;-92
2022/10/13 11:55:21;;;;;;;16.30;8.20;;;;;;;;;;4724731;30;20098;-92
2022/10/13 11:59:54;;;;;;;15.45;7.85;;;;;;;;;;4746230;30;20071;-91
2022/10/13 12:02:57;;;;;;;20.38;8.07;;;;;;;;;;4706924;30;20056;-91
2022/10/13 12:06:39;;;;;;;21.08;8.02;;;;;;;;;;4722084;30;20140;-92
2022/10/13 12:09:47;;;;;;;18.08;7.38;;;;;;;;;;4733482;30;20053;-92
2022/10/13 12:12:58;;;;;;;16.50;7.93;;;;;;;;;;4754580;30;20059;-92
2022/10/13 12:16:09;;;;;;;13.05;7.10;;;;;;;;;;4754655;30;20047;-92
2022/10/13 12:19:22;;;;;;;20.90;7.30;;;;;;;;;;4756591;29;20084;-92
2022/10/13 12:22:45;;;;;;;15.70;6.90;;;;;;;;;;4824520;29;20062;-91
2022/10/13 12:26:13;;;;;;;14.73;6.93;;;;;;;;;;4809121;29;20060;-92
2022/10/13 12:29:58;;;;;;;15.93;6.85;;;;;;;;;;4802480;29;20452;-92
2022/10/13 12:34:05;;;;;;;18.55;7.43;;;;;;;;;;4807633;29;20200;-92
2022/10/13 12:38:00;;;;;;;15.10;7.75;;;;;;;;;;4802843;29;20063;-91
2022/10/13 12:41:24;;;;;;;13.55;7.00;;;;;;;;;;4756109;30;20308;-91
2022/10/13 12:44:50;;;;;;;16.98;6.75;;;;;;;;;;4752030;30;20056;-91
2022/10/13 12:48:03;;;;;;;17.83;8.13;;;;;;;;;;4744238;30;20060;-91
2022/10/13 12:51:53;;;;;;;18.90;7.25;;;;;;;;;;4752054;30;20087;-92
2022/10/13 12:55:03;;;;;;;16.38;6.43;;;;;;;;;;4820192;29;20103;-91
2022/10/13 12:58:00;;;;;;;13.15;6.18;;;;;;;;;;4891787;29;20049;-91
2022/10/13 13:01:27;;;;;;;17.00;5.90;;;;;;;;;;4910710;29;20135;-91
2022/10/13 13:04:45;;;;;;;11.65;5.88;;;;;;;;;;4915960;29;20047;-91
2022/10/13 13:07:31;;;;;;;19.97;6.73;;;;;;;;;;4880386;29;20049;-91
2022/10/13 13:10:39;;;;;;;22.17;6.50;;;;;;;;;;4876230;29;20048;-91
2022/10/13 13:13:30;;;;;;;16.63;6.55;;;;;;;;;;4833188;29;20050;-91
2022/10/13 13:21:35;;;;;;;17.20;6.28;;;;;;;;;;4806266;29;20159;-90
2022/10/13 13:25:40;;;;;;;16.52;7.55;;;;;;;;;;4806507;29;20054;-91
2022/10/13 13:29:01;;;;;;;9.60;5.80;;;;;;;;;;4819951;29;20536;-90
2022/10/13 13:32:20;;;;;;;12.77;5.72;;;;;;;;;;4842277;29;20617;-90
2022/10/13 13:35:55;;;;;;;12.77;6.20;;;;;;;;;;4823442;29;20386;-91
2022/10/13 13:39:00;;;;;;;15.05;6.13;;;;;;;;;;4842556;29;20142;-90
2022/10/13 13:42:35;;;;;;;14.07;5.95;;;;;;;;;;4842082;29;20125;-90
2022/10/13 13:46:52;;;;;;;10.27;5.78;;;;;;;;;;4839325;29;20050;-91
2022/10/13 13:49:50;;;;;;;11.63;6.30;;;;;;;;;;4878985;29;20060;-90
2022/10/13 13:52:56;;;;;;;14.80;6.10;;;;;;;;;;4884835;29;20049;-90
2022/10/13 13:56:35;;;;;;;14.48;6.70;;;;;;;;;;4860419;29;20049;-90
2022/10/13 13:59:15;;;;;;;11.52;5.72;;;;;;;;;;4830665;29;20249;-90
2022/10/13 14:01:57;;;;;;;17.23;6.50;;;;;;;;;;4874225;29;20061;-90
2022/10/13 14:04:47;;;;;;;17.63;6.80;;;;;;;;;;4873838;29;20148;-90
2022/10/13 14:08:28;;;;;;;14.48;6.78;;;;;;;;;;4934451;29;20159;-91
2022/10/13 14:11:06;;;;;;;10.30;5.55;;;;;;;;;;4885978;29;20052;-90
2022/10/13 14:14:26;;;;;;;10.82;6.18;;;;;;;;;;4881413;29;20052;-90
2022/10/13 14:21:55;;;;;;;11.13;5.57;;;;;;;;;;4841575;29;20050;-90
2022/10/13 14:24:47;;;;;;;12.20;5.82;;;;;;;;;;4858628;29;20247;-90
2022/10/13 14:27:35;;;;;;;11.70;5.55;;;;;;;;;;4892382;29;20419;-90
2022/10/13 14:30:27;;;;;;;13.15;6.00;;;;;;;;;;4865434;29;20048;-90
2022/10/13 14:33:08;;;;;;;12.55;6.10;;;;;;;;;;4882595;29;20156;-90
2022/10/13 14:36:14;;;;;;;21.05;6.75;;;;;;;;;;4895863;29;20053;-90
2022/10/13 14:39:20;;;;;;;16.10;6.32;;;;;;;;;;4868102;29;20060;-90
2022/10/13 14:42:41;;;;;;;14.30;6.78;;;;;;;;;;4899127;29;20108;-90
2022/10/13 14:45:26;;;;;;;12.50;6.35;;;;;;;;;;4910929;29;20048;-90
2022/10/13 14:48:22;;;;;;;13.77;7.20;;;;;;;;;;4887456;29;20056;-90
2022/10/13 14:51:19;;;;;;;13.18;5.80;;;;;;;;;;4886685;29;20363;-90
2022/10/13 14:54:53;;;;;;;11.38;5.38;;;;;;;;;;4918818;29;20119;-90
2022/10/13 14:57:29;;;;;;;10.70;5.57;;;;;;;;;;4888153;29;20048;-90
2022/10/13 15:00:47;;;;;;;12.35;5.82;;;;;;;;;;4936119;28;20054;-89
2022/10/13 15:08:18;;;;;;;13.60;5.35;;;;;;;;;;4955183;28;20060;-88
2022/10/13 15:11:26;;;;;;;15.38;5.82;;;;;;;;;;4945046;28;20547;-90
2022/10/13 15:14:38;;;;;;;14.65;5.07;;;;;;;;;;4993614;28;20125;-90
2022/10/13 15:17:39;;;;;;;12.80;5.53;;;;;;;;;;5005354;28;20465;-90
2022/10/13 15:20:33;;;;;;;10.55;5.20;;;;;;;;;;5002932;28;20057;-90
2022/10/13 15:23:23;;;;;;;14.70;5.50;;;;;;;;;;4974151;28;20077;-90
2022/10/13 15:26:18;;;;;;;12.30;5.40;;;;;;;;;;4977564;28;20448;-90
2022/10/13 15:29:12;;;;;;;9.82;5.55;;;;;;;;;;4964232;28;20055;-90
2022/10/13 15:32:16;;;;;;;10.88;5.57;;;;;;;;;;4946064;28;20043;-89
2022/10/13 15:35:13;;;;;;;12.13;5.57;;;;;;;;;;4948806;28;20059;-90
2022/10/13 15:38:31;;;;;;;15.85;5.70;;;;;;;;;;4964305;28;20039;-90
